Lea County Regional Airport
KHOB : now visible

Airfield :











YOU CAN JOIN US ON...

 
LOGIN :

Register | Disclaimer

   EN    FR    IT 

 









Legend :    VFR   Marginal VFR   IFR   Intensive IFR   Very Intensive IFR
Visi :
Ceiling :
>= 8 km
>= 3000ft
5 to 8 km
1000 to 3000 ft
1500m to 5 km
500 to 1000 ft
800 to 1500m
200 to 500 ft
< 800m
< 200 ft
Symbols :   Thunderstorms  Fog  Heavy snow  Heavy precipitations  Wind > 20 kt






- Airport Elevation : 3661 ft


KHOB - Lea County Regional

CURRENT METAR :
  • 290115Z AUTO 03008KT 10SM CLR 16/M09 A3033 RMK AO2

EXPIRED METARs :
  • 290055Z AUTO 03008KT 10SM CLR 17/M09 A3032 RMK AO2
  • 290035Z AUTO 02009KT 10SM CLR 18/M09 A3031 RMK AO2
  • 290015Z AUTO 03011KT 10SM CLR 19/M09 A3031 RMK AO2
  • 282350Z 02013KT 10SM SKC 19/M09 A3031
  • 282250Z 10SM SKC 21/M07 A3031

TAF KHOB
Valid from the 29 at 00:00 until the 30 at 00:00 UTC


282327Z 2900/2924 01011KT P6SM SKC
FM290200 VRB05KT P6SM SKC AMD NOT SKED
KZFW FIR / North America



MET'MAP, your aeronautical weather chart ! - Copyright ORBIFLY December 2007 - Disclaimer

ORBIFLY MET'MAP TEAM :

Programming & Development : Alexandra Zaïnal
Concept & original design : Baudouin d'Aumeries
Assistance for programming : Marc-Olivier Méhu
Technical & hardware support : Manuel Goepfert

Contact : metmap@orbifly.com




SOURCES & CREDITS :

   NOAA       Earth
Advisory